sensor_id;sensor_type;location;lat;lon;timestamp;temperature;humidity
75372;HTU21D;63956;52.006;5.878;2023-01-24T00:01:44;5.72;65.57
75372;HTU21D;63956;52.006;5.878;2023-01-24T00:04:13;5.70;65.58
75372;HTU21D;63956;52.006;5.878;2023-01-24T00:06:42;5.70;65.46
75372;HTU21D;63956;52.006;5.878;2023-01-24T00:09:14;5.69;65.41
75372;HTU21D;63956;52.006;5.878;2023-01-24T00:11:44;5.67;65.29
75372;HTU21D;63956;52.006;5.878;2023-01-24T00:14:13;5.66;65.52
75372;HTU21D;63956;52.006;5.878;2023-01-24T00:16:42;5.67;65.27
75372;HTU21D;63956;52.006;5.878;2023-01-24T00:19:11;5.69;65.40
75372;HTU21D;63956;52.006;5.878;2023-01-24T00:21:40;5.62;65.21
75372;HTU21D;63956;52.006;5.878;2023-01-24T00:24:09;5.65;65.37
75372;HTU21D;63956;52.006;5.878;2023-01-24T00:26:40;5.59;65.16
75372;HTU21D;63956;52.006;5.878;2023-01-24T00:29:09;5.62;65.43
75372;HTU21D;63956;52.006;5.878;2023-01-24T00:31:38;5.65;65.53
75372;HTU21D;63956;52.006;5.878;2023-01-24T00:34:07;5.63;65.50
75372;HTU21D;63956;52.006;5.878;2023-01-24T00:36:37;5.64;65.27
75372;HTU21D;63956;52.006;5.878;2023-01-24T00:39:09;5.63;65.17
75372;HTU21D;63956;52.006;5.878;2023-01-24T00:41:41;5.63;65.37
75372;HTU21D;63956;52.006;5.878;2023-01-24T00:44:10;5.63;65.11
75372;HTU21D;63956;52.006;5.878;2023-01-24T00:46:40;5.62;65.40
75372;HTU21D;63956;52.006;5.878;2023-01-24T00:49:09;5.60;65.28
75372;HTU21D;63956;52.006;5.878;2023-01-24T00:51:38;5.61;65.38
75372;HTU21D;63956;52.006;5.878;2023-01-24T00:54:07;5.54;65.14
75372;HTU21D;63956;52.006;5.878;2023-01-24T00:56:36;5.50;65.60
75372;HTU21D;63956;52.006;5.878;2023-01-24T00:59:08;5.51;65.53
75372;HTU21D;63956;52.006;5.878;2023-01-24T01:01:37;5.53;65.44
75372;HTU21D;63956;52.006;5.878;2023-01-24T01:04:06;5.59;65.39
75372;HTU21D;63956;52.006;5.878;2023-01-24T01:06:35;5.52;65.19
75372;HTU21D;63956;52.006;5.878;2023-01-24T01:09:04;5.47;65.27
75372;HTU21D;63956;52.006;5.878;2023-01-24T01:11:34;5.47;65.61
75372;HTU21D;63956;52.006;5.878;2023-01-24T01:14:10;5.46;65.62
75372;HTU21D;63956;52.006;5.878;2023-01-24T01:16:41;5.46;65.69
75372;HTU21D;63956;52.006;5.878;2023-01-24T01:19:10;5.50;65.24
75372;HTU21D;63956;52.006;5.878;2023-01-24T01:21:39;5.49;65.46
75372;HTU21D;63956;52.006;5.878;2023-01-24T01:24:11;5.49;65.22
75372;HTU21D;63956;52.006;5.878;2023-01-24T01:26:40;5.52;65.37
75372;HTU21D;63956;52.006;5.878;2023-01-24T01:29:12;5.52;65.07
75372;HTU21D;63956;52.006;5.878;2023-01-24T01:31:41;5.53;65.37
75372;HTU21D;63956;52.006;5.878;2023-01-24T01:34:10;5.60;65.25
75372;HTU21D;63956;52.006;5.878;2023-01-24T01:36:40;5.54;65.23
75372;HTU21D;63956;52.006;5.878;2023-01-24T01:39:09;5.54;65.21
75372;HTU21D;63956;52.006;5.878;2023-01-24T01:41:38;5.52;65.37
75372;HTU21D;63956;52.006;5.878;2023-01-24T01:44:24;5.57;65.38
75372;HTU21D;63956;52.006;5.878;2023-01-24T01:47:20;5.56;65.53
75372;HTU21D;63956;52.006;5.878;2023-01-24T01:49:56;5.53;65.38
75372;HTU21D;63956;52.006;5.878;2023-01-24T01:52:31;5.50;65.53
75372;HTU21D;63956;52.006;5.878;2023-01-24T01:55:04;5.53;65.66
75372;HTU21D;63956;52.006;5.878;2023-01-24T01:57:35;5.54;65.49
75372;HTU21D;63956;52.006;5.878;2023-01-24T02:00:12;5.53;65.54
75372;HTU21D;63956;52.006;5.878;2023-01-24T02:02:44;5.51;65.62
75372;HTU21D;63956;52.006;5.878;2023-01-24T02:05:17;5.50;65.53
75372;HTU21D;63956;52.006;5.878;2023-01-24T02:07:50;5.53;65.44
75372;HTU21D;63956;52.006;5.878;2023-01-24T02:10:23;5.53;65.62
75372;HTU21D;63956;52.006;5.878;2023-01-24T02:13:13;5.56;65.60
75372;HTU21D;63956;52.006;5.878;2023-01-24T02:15:45;5.55;65.48
75372;HTU21D;63956;52.006;5.878;2023-01-24T02:18:29;5.52;65.62
75372;HTU21D;63956;52.006;5.878;2023-01-24T02:20:58;5.53;65.74
75372;HTU21D;63956;52.006;5.878;2023-01-24T02:23:32;5.53;65.69
75372;HTU21D;63956;52.006;5.878;2023-01-24T02:26:10;5.53;65.76
75372;HTU21D;63956;52.006;5.878;2023-01-24T02:28:43;5.53;65.56
75372;HTU21D;63956;52.006;5.878;2023-01-24T02:31:13;5.53;65.69
75372;HTU21D;63956;52.006;5.878;2023-01-24T02:33:42;5.48;65.62
75372;HTU21D;63956;52.006;5.878;2023-01-24T02:36:17;5.45;65.78
75372;HTU21D;63956;52.006;5.878;2023-01-24T02:38:55;5.46;65.85
75372;HTU21D;63956;52.006;5.878;2023-01-24T02:41:33;5.45;65.88
75372;HTU21D;63956;52.006;5.878;2023-01-24T02:44:09;5.45;65.85
75372;HTU21D;63956;52.006;5.878;2023-01-24T02:46:43;5.43;65.69
75372;HTU21D;63956;52.006;5.878;2023-01-24T02:49:12;5.45;65.91
75372;HTU21D;63956;52.006;5.878;2023-01-24T02:51:42;5.48;65.78
75372;HTU21D;63956;52.006;5.878;2023-01-24T02:54:23;5.48;65.80
75372;HTU21D;63956;52.006;5.878;2023-01-24T02:56:55;5.48;65.81
75372;HTU21D;63956;52.006;5.878;2023-01-24T02:59:37;5.48;65.89
75372;HTU21D;63956;52.006;5.878;2023-01-24T03:02:07;5.48;65.78
75372;HTU21D;63956;52.006;5.878;2023-01-24T03:04:36;5.45;65.85
75372;HTU21D;63956;52.006;5.878;2023-01-24T03:07:07;5.46;65.82
75372;HTU21D;63956;52.006;5.878;2023-01-24T03:09:40;5.48;65.88
75372;HTU21D;63956;52.006;5.878;2023-01-24T03:12:22;5.48;65.90
75372;HTU21D;63956;52.006;5.878;2023-01-24T03:15:05;5.47;65.89
75372;HTU21D;63956;52.006;5.878;2023-01-24T03:17:46;5.42;65.89
75372;HTU21D;63956;52.006;5.878;2023-01-24T03:20:28;5.42;65.85
75372;HTU21D;63956;52.006;5.878;2023-01-24T03:23:09;5.34;66.08
75372;HTU21D;63956;52.006;5.878;2023-01-24T03:25:52;5.37;65.87
75372;HTU21D;63956;52.006;5.878;2023-01-24T03:28:36;5.27;65.89
75372;HTU21D;63956;52.006;5.878;2023-01-24T03:31:18;5.26;66.19
75372;HTU21D;63956;52.006;5.878;2023-01-24T03:34:00;5.28;66.08
75372;HTU21D;63956;52.006;5.878;2023-01-24T03:36:43;5.27;65.98
75372;HTU21D;63956;52.006;5.878;2023-01-24T03:39:12;5.34;65.92
75372;HTU21D;63956;52.006;5.878;2023-01-24T03:41:53;5.28;66.00
75372;HTU21D;63956;52.006;5.878;2023-01-24T03:44:25;5.26;66.26
75372;HTU21D;63956;52.006;5.878;2023-01-24T03:46:55;5.30;66.27
75372;HTU21D;63956;52.006;5.878;2023-01-24T03:49:24;5.30;66.17
75372;HTU21D;63956;52.006;5.878;2023-01-24T03:52:06;5.32;66.09
75372;HTU21D;63956;52.006;5.878;2023-01-24T03:54:48;5.26;66.21
75372;HTU21D;63956;52.006;5.878;2023-01-24T03:57:17;5.24;66.26
75372;HTU21D;63956;52.006;5.878;2023-01-24T03:59:48;5.28;66.14
75372;HTU21D;63956;52.006;5.878;2023-01-24T04:02:18;5.24;66.26
75372;HTU21D;63956;52.006;5.878;2023-01-24T04:04:47;5.24;66.04
75372;HTU21D;63956;52.006;5.878;2023-01-24T04:07:29;5.22;66.05
75372;HTU21D;63956;52.006;5.878;2023-01-24T04:10:03;5.23;66.07
75372;HTU21D;63956;52.006;5.878;2023-01-24T04:12:38;5.22;66.20
75372;HTU21D;63956;52.006;5.878;2023-01-24T04:15:13;5.26;66.06
75372;HTU21D;63956;52.006;5.878;2023-01-24T04:17:45;5.20;66.20
75372;HTU21D;63956;52.006;5.878;2023-01-24T04:20:16;5.18;66.33
75372;HTU21D;63956;52.006;5.878;2023-01-24T04:22:47;5.16;66.31
75372;HTU21D;63956;52.006;5.878;2023-01-24T04:25:16;5.15;66.36
75372;HTU21D;63956;52.006;5.878;2023-01-24T04:27:47;5.15;66.20
75372;HTU21D;63956;52.006;5.878;2023-01-24T04:30:25;5.15;66.32
75372;HTU21D;63956;52.006;5.878;2023-01-24T04:32:57;5.16;66.30
75372;HTU21D;63956;52.006;5.878;2023-01-24T04:35:28;5.15;66.21
75372;HTU21D;63956;52.006;5.878;2023-01-24T04:38:01;5.12;66.48
75372;HTU21D;63956;52.006;5.878;2023-01-24T04:40:37;5.11;66.42
75372;HTU21D;63956;52.006;5.878;2023-01-24T04:43:07;5.11;66.53
75372;HTU21D;63956;52.006;5.878;2023-01-24T04:45:40;5.11;66.40
75372;HTU21D;63956;52.006;5.878;2023-01-24T04:48:13;5.12;66.35
75372;HTU21D;63956;52.006;5.878;2023-01-24T04:50:43;5.11;66.46
75372;HTU21D;63956;52.006;5.878;2023-01-24T04:53:12;5.13;66.41
75372;HTU21D;63956;52.006;5.878;2023-01-24T04:55:43;5.13;66.43
75372;HTU21D;63956;52.006;5.878;2023-01-24T04:58:12;5.15;66.41
75372;HTU21D;63956;52.006;5.878;2023-01-24T05:00:44;5.21;66.25
75372;HTU21D;63956;52.006;5.878;2023-01-24T05:03:13;5.16;66.18
75372;HTU21D;63956;52.006;5.878;2023-01-24T05:05:42;5.20;66.18
75372;HTU21D;63956;52.006;5.878;2023-01-24T05:08:12;5.11;66.30
75372;HTU21D;63956;52.006;5.878;2023-01-24T05:10:41;5.18;66.16
75372;HTU21D;63956;52.006;5.878;2023-01-24T05:13:10;5.05;66.54
75372;HTU21D;63956;52.006;5.878;2023-01-24T05:15:48;5.04;66.49
75372;HTU21D;63956;52.006;5.878;2023-01-24T05:18:19;5.01;66.62
75372;HTU21D;63956;52.006;5.878;2023-01-24T05:20:48;5.01;66.72
75372;HTU21D;63956;52.006;5.878;2023-01-24T05:23:17;5.06;66.47
75372;HTU21D;63956;52.006;5.878;2023-01-24T05:25:48;5.00;66.56
75372;HTU21D;63956;52.006;5.878;2023-01-24T05:28:17;5.00;66.78
75372;HTU21D;63956;52.006;5.878;2023-01-24T05:30:51;5.00;66.70
75372;HTU21D;63956;52.006;5.878;2023-01-24T05:33:25;5.02;66.58
75372;HTU21D;63956;52.006;5.878;2023-01-24T05:35:58;5.03;66.66
75372;HTU21D;63956;52.006;5.878;2023-01-24T05:38:31;5.03;66.62
75372;HTU21D;63956;52.006;5.878;2023-01-24T05:41:02;5.04;66.56
75372;HTU21D;63956;52.006;5.878;2023-01-24T05:43:33;5.03;66.57
75372;HTU21D;63956;52.006;5.878;2023-01-24T05:46:06;5.04;66.72
75372;HTU21D;63956;52.006;5.878;2023-01-24T05:48:41;5.00;66.74
75372;HTU21D;63956;52.006;5.878;2023-01-24T05:51:13;4.97;66.81
75372;HTU21D;63956;52.006;5.878;2023-01-24T05:53:44;4.98;66.70
75372;HTU21D;63956;52.006;5.878;2023-01-24T05:56:20;4.97;66.61
75372;HTU21D;63956;52.006;5.878;2023-01-24T05:58:49;5.02;66.59
75372;HTU21D;63956;52.006;5.878;2023-01-24T06:01:22;4.92;66.69
75372;HTU21D;63956;52.006;5.878;2023-01-24T06:03:53;4.93;66.78
75372;HTU21D;63956;52.006;5.878;2023-01-24T06:06:24;4.94;66.75
75372;HTU21D;63956;52.006;5.878;2023-01-24T06:08:53;4.97;66.69
75372;HTU21D;63956;52.006;5.878;2023-01-24T06:11:23;4.96;66.56
75372;HTU21D;63956;52.006;5.878;2023-01-24T06:14:00;4.96;66.68
75372;HTU21D;63956;52.006;5.878;2023-01-24T06:16:33;4.96;66.79
75372;HTU21D;63956;52.006;5.878;2023-01-24T06:19:04;4.97;66.73
75372;HTU21D;63956;52.006;5.878;2023-01-24T06:21:43;4.98;66.69
75372;HTU21D;63956;52.006;5.878;2023-01-24T06:24:18;4.98;66.57
75372;HTU21D;63956;52.006;5.878;2023-01-24T06:27:16;5.05;66.44
75372;HTU21D;63956;52.006;5.878;2023-01-24T06:29:46;4.98;66.52
75372;HTU21D;63956;52.006;5.878;2023-01-24T06:32:25;4.95;66.80
75372;HTU21D;63956;52.006;5.878;2023-01-24T06:35:02;5.00;66.57
75372;HTU21D;63956;52.006;5.878;2023-01-24T06:37:40;4.92;66.62
75372;HTU21D;63956;52.006;5.878;2023-01-24T06:40:14;4.89;66.87
75372;HTU21D;63956;52.006;5.878;2023-01-24T06:42:45;4.90;66.87
75372;HTU21D;63956;52.006;5.878;2023-01-24T06:45:14;4.90;66.88
75372;HTU21D;63956;52.006;5.878;2023-01-24T06:47:46;4.91;66.71
75372;HTU21D;63956;52.006;5.878;2023-01-24T06:50:18;4.89;66.67
75372;HTU21D;63956;52.006;5.878;2023-01-24T06:52:48;4.89;66.81
75372;HTU21D;63956;52.006;5.878;2023-01-24T06:55:19;4.92;66.69
75372;HTU21D;63956;52.006;5.878;2023-01-24T06:57:53;4.90;66.84
75372;HTU21D;63956;52.006;5.878;2023-01-24T07:00:23;4.90;66.81
75372;HTU21D;63956;52.006;5.878;2023-01-24T07:03:01;4.92;66.85
75372;HTU21D;63956;52.006;5.878;2023-01-24T07:05:33;4.92;66.85
75372;HTU21D;63956;52.006;5.878;2023-01-24T07:08:03;4.96;66.88
75372;HTU21D;63956;52.006;5.878;2023-01-24T07:10:33;4.96;66.75
75372;HTU21D;63956;52.006;5.878;2023-01-24T07:13:02;4.94;66.85
75372;HTU21D;63956;52.006;5.878;2023-01-24T07:15:31;4.93;66.84
75372;HTU21D;63956;52.006;5.878;2023-01-24T07:18:08;4.91;66.83
75372;HTU21D;63956;52.006;5.878;2023-01-24T07:20:37;4.93;66.83
75372;HTU21D;63956;52.006;5.878;2023-01-24T07:23:16;4.90;66.82
75372;HTU21D;63956;52.006;5.878;2023-01-24T07:25:49;4.90;66.85
75372;HTU21D;63956;52.006;5.878;2023-01-24T07:28:18;4.89;66.86
75372;HTU21D;63956;52.006;5.878;2023-01-24T07:30:48;4.86;67.03
75372;HTU21D;63956;52.006;5.878;2023-01-24T07:33:23;4.89;66.87
75372;HTU21D;63956;52.006;5.878;2023-01-24T07:35:52;4.89;67.00
75372;HTU21D;63956;52.006;5.878;2023-01-24T07:38:21;4.91;66.83
75372;HTU21D;63956;52.006;5.878;2023-01-24T07:40:50;4.89;66.85
75372;HTU21D;63956;52.006;5.878;2023-01-24T07:43:20;4.91;66.91
75372;HTU21D;63956;52.006;5.878;2023-01-24T07:45:49;4.94;66.75
75372;HTU21D;63956;52.006;5.878;2023-01-24T07:48:18;4.95;66.71
75372;HTU21D;63956;52.006;5.878;2023-01-24T07:50:49;4.92;66.84
75372;HTU21D;63956;52.006;5.878;2023-01-24T07:53:19;4.90;66.86
75372;HTU21D;63956;52.006;5.878;2023-01-24T07:55:48;4.90;66.70
75372;HTU21D;63956;52.006;5.878;2023-01-24T07:58:17;4.91;66.92
75372;HTU21D;63956;52.006;5.878;2023-01-24T08:00:46;4.92;66.90
75372;HTU21D;63956;52.006;5.878;2023-01-24T08:03:15;4.90;66.65
75372;HTU21D;63956;52.006;5.878;2023-01-24T08:05:45;4.91;66.82
75372;HTU21D;63956;52.006;5.878;2023-01-24T08:08:16;4.91;66.75
75372;HTU21D;63956;52.006;5.878;2023-01-24T08:10:45;4.93;66.81
75372;HTU21D;63956;52.006;5.878;2023-01-24T08:13:15;4.94;66.85
75372;HTU21D;63956;52.006;5.878;2023-01-24T08:15:48;4.94;66.81
75372;HTU21D;63956;52.006;5.878;2023-01-24T08:18:21;4.94;66.78
75372;HTU21D;63956;52.006;5.878;2023-01-24T08:20:54;4.95;66.79
75372;HTU21D;63956;52.006;5.878;2023-01-24T08:23:26;4.96;66.74
75372;HTU21D;63956;52.006;5.878;2023-01-24T08:25:57;4.95;66.81
75372;HTU21D;63956;52.006;5.878;2023-01-24T08:28:26;4.98;66.70
75372;HTU21D;63956;52.006;5.878;2023-01-24T08:30:57;4.97;66.60
75372;HTU21D;63956;52.006;5.878;2023-01-24T08:33:26;4.92;66.72
75372;HTU21D;63956;52.006;5.878;2023-01-24T08:35:55;4.94;66.61
75372;HTU21D;63956;52.006;5.878;2023-01-24T08:38:27;4.94;66.79
75372;HTU21D;63956;52.006;5.878;2023-01-24T08:40:56;4.94;66.68
75372;HTU21D;63956;52.006;5.878;2023-01-24T08:43:25;4.95;66.68
75372;HTU21D;63956;52.006;5.878;2023-01-24T08:45:54;4.96;66.51
75372;HTU21D;63956;52.006;5.878;2023-01-24T08:48:24;4.96;66.38
75372;HTU21D;63956;52.006;5.878;2023-01-24T08:50:53;4.98;66.33
75372;HTU21D;63956;52.006;5.878;2023-01-24T08:53:22;4.98;66.50
75372;HTU21D;63956;52.006;5.878;2023-01-24T08:55:54;5.00;66.46
75372;HTU21D;63956;52.006;5.878;2023-01-24T08:58:25;5.04;66.40
75372;HTU21D;63956;52.006;5.878;2023-01-24T09:00:55;5.07;66.33
75372;HTU21D;63956;52.006;5.878;2023-01-24T09:03:24;5.10;66.19
75372;HTU21D;63956;52.006;5.878;2023-01-24T09:05:56;5.16;66.28
75372;HTU21D;63956;52.006;5.878;2023-01-24T09:08:25;5.18;66.26
75372;HTU21D;63956;52.006;5.878;2023-01-24T09:11:00;5.21;66.33
75372;HTU21D;63956;52.006;5.878;2023-01-24T09:13:29;5.23;66.31
75372;HTU21D;63956;52.006;5.878;2023-01-24T09:15:59;5.26;66.32
75372;HTU21D;63956;52.006;5.878;2023-01-24T09:18:28;5.28;66.24
75372;HTU21D;63956;52.006;5.878;2023-01-24T09:21:00;5.30;66.22
75372;HTU21D;63956;52.006;5.878;2023-01-24T09:23:31;5.31;66.22
75372;HTU21D;63956;52.006;5.878;2023-01-24T09:26:03;5.32;66.24
75372;HTU21D;63956;52.006;5.878;2023-01-24T09:28:32;5.33;66.10
75372;HTU21D;63956;52.006;5.878;2023-01-24T09:31:01;5.36;66.11
75372;HTU21D;63956;52.006;5.878;2023-01-24T09:33:30;5.33;66.17
75372;HTU21D;63956;52.006;5.878;2023-01-24T09:36:00;5.37;66.07
75372;HTU21D;63956;52.006;5.878;2023-01-24T09:38:31;5.28;65.91
75372;HTU21D;63956;52.006;5.878;2023-01-24T09:41:10;5.26;66.24
75372;HTU21D;63956;52.006;5.878;2023-01-24T09:43:43;5.27;65.97
75372;HTU21D;63956;52.006;5.878;2023-01-24T09:46:31;5.27;66.11
75372;HTU21D;63956;52.006;5.878;2023-01-24T09:49:09;5.25;66.11
75372;HTU21D;63956;52.006;5.878;2023-01-24T09:51:44;5.27;66.05
75372;HTU21D;63956;52.006;5.878;2023-01-24T09:54:17;5.30;65.92
75372;HTU21D;63956;52.006;5.878;2023-01-24T09:56:53;5.34;66.03
75372;HTU21D;63956;52.006;5.878;2023-01-24T09:59:29;5.35;65.92
75372;HTU21D;63956;52.006;5.878;2023-01-24T10:02:02;5.35;65.91
75372;HTU21D;63956;52.006;5.878;2023-01-24T10:04:40;5.34;65.82
75372;HTU21D;63956;52.006;5.878;2023-01-24T10:10:37;5.33;65.81
75372;HTU21D;63956;52.006;5.878;2023-01-24T10:13:15;5.36;65.88
75372;HTU21D;63956;52.006;5.878;2023-01-24T10:15:58;5.32;65.82
75372;HTU21D;63956;52.006;5.878;2023-01-24T10:18:33;5.39;65.78
75372;HTU21D;63956;52.006;5.878;2023-01-24T10:21:34;5.33;65.80
75372;HTU21D;63956;52.006;5.878;2023-01-24T10:24:11;5.35;65.72
75372;HTU21D;63956;52.006;5.878;2023-01-24T10:26:43;5.37;65.70
75372;HTU21D;63956;52.006;5.878;2023-01-24T10:29:21;5.38;65.51
75372;HTU21D;63956;52.006;5.878;2023-01-24T10:31:56;5.41;65.69
75372;HTU21D;63956;52.006;5.878;2023-01-24T10:34:31;5.47;65.61
75372;HTU21D;63956;52.006;5.878;2023-01-24T10:37:03;5.49;65.46
75372;HTU21D;63956;52.006;5.878;2023-01-24T10:39:34;5.51;65.59
75372;HTU21D;63956;52.006;5.878;2023-01-24T10:42:14;5.54;65.59
75372;HTU21D;63956;52.006;5.878;2023-01-24T10:44:50;5.54;65.39
75372;HTU21D;63956;52.006;5.878;2023-01-24T10:47:38;5.54;65.54
75372;HTU21D;63956;52.006;5.878;2023-01-24T10:50:11;5.56;65.56
75372;HTU21D;63956;52.006;5.878;2023-01-24T10:52:41;5.60;65.43
75372;HTU21D;63956;52.006;5.878;2023-01-24T10:55:25;5.65;65.53
75372;HTU21D;63956;52.006;5.878;2023-01-24T10:57:56;5.66;65.24
75372;HTU21D;63956;52.006;5.878;2023-01-24T11:00:32;5.66;65.09
75372;HTU21D;63956;52.006;5.878;2023-01-24T11:03:03;5.63;64.98
75372;HTU21D;63956;52.006;5.878;2023-01-24T11:05:39;5.62;65.21
75372;HTU21D;63956;52.006;5.878;2023-01-24T11:08:17;5.64;65.07
75372;HTU21D;63956;52.006;5.878;2023-01-24T11:10:47;5.66;65.04
75372;HTU21D;63956;52.006;5.878;2023-01-24T11:13:34;5.67;65.24
75372;HTU21D;63956;52.006;5.878;2023-01-24T11:16:20;5.68;65.08
75372;HTU21D;63956;52.006;5.878;2023-01-24T11:18:52;5.67;64.95
75372;HTU21D;63956;52.006;5.878;2023-01-24T11:21:23;5.68;65.06
75372;HTU21D;63956;52.006;5.878;2023-01-24T11:24:11;5.75;65.01
75372;HTU21D;63956;52.006;5.878;2023-01-24T11:26:53;5.78;64.73
75372;HTU21D;63956;52.006;5.878;2023-01-24T11:29:22;5.77;64.72
75372;HTU21D;63956;52.006;5.878;2023-01-24T11:31:57;5.74;64.56
75372;HTU21D;63956;52.006;5.878;2023-01-24T11:34:44;5.76;64.85
75372;HTU21D;63956;52.006;5.878;2023-01-24T11:37:38;5.80;64.68
75372;HTU21D;63956;52.006;5.878;2023-01-24T11:40:28;5.83;64.65
75372;HTU21D;63956;52.006;5.878;2023-01-24T11:43:14;5.82;64.37
75372;HTU21D;63956;52.006;5.878;2023-01-24T11:46:10;5.78;64.75
75372;HTU21D;63956;52.006;5.878;2023-01-24T11:48:52;5.78;64.53
75372;HTU21D;63956;52.006;5.878;2023-01-24T11:51:39;5.81;64.72
75372;HTU21D;63956;52.006;5.878;2023-01-24T11:54:23;5.83;64.24
75372;HTU21D;63956;52.006;5.878;2023-01-24T11:57:00;5.83;64.34
75372;HTU21D;63956;52.006;5.878;2023-01-24T11:59:41;5.84;64.59
75372;HTU21D;63956;52.006;5.878;2023-01-24T12:05:35;5.95;64.38
75372;HTU21D;63956;52.006;5.878;2023-01-24T12:08:20;5.96;64.32
75372;HTU21D;63956;52.006;5.878;2023-01-24T12:10:57;5.96;64.43
75372;HTU21D;63956;52.006;5.878;2023-01-24T12:13:35;5.97;64.41
75372;HTU21D;63956;52.006;5.878;2023-01-24T12:16:16;5.98;64.39
75372;HTU21D;63956;52.006;5.878;2023-01-24T12:19:08;5.97;64.50
75372;HTU21D;63956;52.006;5.878;2023-01-24T12:21:45;5.98;64.48
75372;HTU21D;63956;52.006;5.878;2023-01-24T12:24:18;5.97;64.38
75372;HTU21D;63956;52.006;5.878;2023-01-24T12:26:50;5.95;64.56
75372;HTU21D;63956;52.006;5.878;2023-01-24T12:29:25;5.99;64.35
75372;HTU21D;63956;52.006;5.878;2023-01-24T12:32:00;6.05;64.32
75372;HTU21D;63956;52.006;5.878;2023-01-24T12:34:37;6.06;64.18
75372;HTU21D;63956;52.006;5.878;2023-01-24T12:37:17;6.07;64.07
75372;HTU21D;63956;52.006;5.878;2023-01-24T12:39:52;6.04;64.21
75372;HTU21D;63956;52.006;5.878;2023-01-24T12:42:32;6.02;64.27
75372;HTU21D;63956;52.006;5.878;2023-01-24T12:45:09;6.05;64.05
75372;HTU21D;63956;52.006;5.878;2023-01-24T12:47:44;6.05;63.65
75372;HTU21D;63956;52.006;5.878;2023-01-24T12:50:21;6.05;63.85
75372;HTU21D;63956;52.006;5.878;2023-01-24T12:53:03;6.06;64.03
75372;HTU21D;63956;52.006;5.878;2023-01-24T12:55:37;6.05;63.98
75372;HTU21D;63956;52.006;5.878;2023-01-24T12:58:15;6.00;64.18
75372;HTU21D;63956;52.006;5.878;2023-01-24T13:00:54;6.04;64.11
75372;HTU21D;63956;52.006;5.878;2023-01-24T13:03:34;6.05;64.02
75372;HTU21D;63956;52.006;5.878;2023-01-24T13:06:11;6.02;63.98
75372;HTU21D;63956;52.006;5.878;2023-01-24T13:08:52;6.00;63.86
75372;HTU21D;63956;52.006;5.878;2023-01-24T13:11:25;5.95;63.89
75372;HTU21D;63956;52.006;5.878;2023-01-24T13:14:05;5.92;64.01
75372;HTU21D;63956;52.006;5.878;2023-01-24T13:16:55;5.91;64.17
75372;HTU21D;63956;52.006;5.878;2023-01-24T13:19:43;5.93;64.14
75372;HTU21D;63956;52.006;5.878;2023-01-24T13:22:31;5.93;64.08
75372;HTU21D;63956;52.006;5.878;2023-01-24T13:25:25;5.94;63.98
75372;HTU21D;63956;52.006;5.878;2023-01-24T13:28:03;5.92;63.97
75372;HTU21D;63956;52.006;5.878;2023-01-24T13:30:43;5.91;64.07
75372;HTU21D;63956;52.006;5.878;2023-01-24T13:33:18;5.92;63.95
75372;HTU21D;63956;52.006;5.878;2023-01-24T13:35:50;5.93;63.75
75372;HTU21D;63956;52.006;5.878;2023-01-24T13:38:23;5.91;63.60
75372;HTU21D;63956;52.006;5.878;2023-01-24T13:41:01;5.85;63.69
75372;HTU21D;63956;52.006;5.878;2023-01-24T13:43:54;5.84;63.97
75372;HTU21D;63956;52.006;5.878;2023-01-24T13:49:33;5.81;63.78
75372;HTU21D;63956;52.006;5.878;2023-01-24T13:52:04;5.74;63.98
75372;HTU21D;63956;52.006;5.878;2023-01-24T13:54:53;5.75;64.00
75372;HTU21D;63956;52.006;5.878;2023-01-24T13:57:26;5.71;64.03
75372;HTU21D;63956;52.006;5.878;2023-01-24T14:00:16;5.76;63.96
75372;HTU21D;63956;52.006;5.878;2023-01-24T14:03:15;5.74;63.98
75372;HTU21D;63956;52.006;5.878;2023-01-24T14:05:50;5.69;64.05
75372;HTU21D;63956;52.006;5.878;2023-01-24T14:11:53;5.67;64.01
75372;HTU21D;63956;52.006;5.878;2023-01-24T14:17:45;5.61;64.00
75372;HTU21D;63956;52.006;5.878;2023-01-24T14:20:42;5.56;64.18
75372;HTU21D;63956;52.006;5.878;2023-01-24T14:23:16;5.53;64.20
75372;HTU21D;63956;52.006;5.878;2023-01-24T14:25:48;5.55;64.09
75372;HTU21D;63956;52.006;5.878;2023-01-24T14:28:30;5.51;64.11
75372;HTU21D;63956;52.006;5.878;2023-01-24T14:31:19;5.48;64.06
75372;HTU21D;63956;52.006;5.878;2023-01-24T14:33:52;5.46;64.01
75372;HTU21D;63956;52.006;5.878;2023-01-24T14:36:27;5.46;64.11
75372;HTU21D;63956;52.006;5.878;2023-01-24T14:39:15;5.45;63.96
75372;HTU21D;63956;52.006;5.878;2023-01-24T14:41:47;5.43;64.19
75372;HTU21D;63956;52.006;5.878;2023-01-24T14:44:19;5.45;64.11
75372;HTU21D;63956;52.006;5.878;2023-01-24T14:46:59;5.39;64.27
75372;HTU21D;63956;52.006;5.878;2023-01-24T14:49:31;5.38;64.25
75372;HTU21D;63956;52.006;5.878;2023-01-24T14:52:12;5.35;64.22
75372;HTU21D;63956;52.006;5.878;2023-01-24T14:54:44;5.35;64.27
75372;HTU21D;63956;52.006;5.878;2023-01-24T14:57:21;5.32;64.26
75372;HTU21D;63956;52.006;5.878;2023-01-24T15:00:02;5.26;64.19
75372;HTU21D;63956;52.006;5.878;2023-01-24T15:02:35;5.22;64.20
75372;HTU21D;63956;52.006;5.878;2023-01-24T15:05:21;5.19;64.47
75372;HTU21D;63956;52.006;5.878;2023-01-24T15:07:51;5.13;64.47
75372;HTU21D;63956;52.006;5.878;2023-01-24T15:10:22;5.11;64.66
75372;HTU21D;63956;52.006;5.878;2023-01-24T15:12:52;5.12;64.49
75372;HTU21D;63956;52.006;5.878;2023-01-24T15:15:22;5.12;64.59
75372;HTU21D;63956;52.006;5.878;2023-01-24T15:17:59;5.11;64.68
75372;HTU21D;63956;52.006;5.878;2023-01-24T15:20:30;5.09;64.53
75372;HTU21D;63956;52.006;5.878;2023-01-24T15:23:01;5.03;64.45
75372;HTU21D;63956;52.006;5.878;2023-01-24T15:25:35;4.96;64.48
75372;HTU21D;63956;52.006;5.878;2023-01-24T15:28:18;4.94;64.83
75372;HTU21D;63956;52.006;5.878;2023-01-24T15:30:53;4.96;64.72
75372;HTU21D;63956;52.006;5.878;2023-01-24T15:33:39;4.94;64.69
75372;HTU21D;63956;52.006;5.878;2023-01-24T15:36:21;4.93;64.75
75372;HTU21D;63956;52.006;5.878;2023-01-24T15:38:52;4.89;64.63
75372;HTU21D;63956;52.006;5.878;2023-01-24T15:41:24;4.84;64.62
75372;HTU21D;63956;52.006;5.878;2023-01-24T15:44:14;4.84;64.66
75372;HTU21D;63956;52.006;5.878;2023-01-24T15:46:42;4.78;64.85
75372;HTU21D;63956;52.006;5.878;2023-01-24T15:49:29;4.75;64.97
75372;HTU21D;63956;52.006;5.878;2023-01-24T15:52:14;4.74;65.05
75372;HTU21D;63956;52.006;5.878;2023-01-24T15:54:45;4.76;64.98
75372;HTU21D;63956;52.006;5.878;2023-01-24T15:57:21;4.72;64.98
75372;HTU21D;63956;52.006;5.878;2023-01-24T15:59:52;4.73;65.09
75372;HTU21D;63956;52.006;5.878;2023-01-24T16:02:22;4.71;64.88
75372;HTU21D;63956;52.006;5.878;2023-01-24T16:04:53;4.69;64.94
75372;HTU21D;63956;52.006;5.878;2023-01-24T16:07:23;4.63;64.81
75372;HTU21D;63956;52.006;5.878;2023-01-24T16:09:52;4.62;65.06
75372;HTU21D;63956;52.006;5.878;2023-01-24T16:12:22;4.62;65.11
75372;HTU21D;63956;52.006;5.878;2023-01-24T16:14:53;4.61;65.13
75372;HTU21D;63956;52.006;5.878;2023-01-24T16:17:24;4.61;65.17
75372;HTU21D;63956;52.006;5.878;2023-01-24T16:19:56;4.63;65.20
75372;HTU21D;63956;52.006;5.878;2023-01-24T16:22:25;4.65;65.17
75372;HTU21D;63956;52.006;5.878;2023-01-24T16:24:54;4.66;65.27
75372;HTU21D;63956;52.006;5.878;2023-01-24T16:27:24;4.66;65.20
75372;HTU21D;63956;52.006;5.878;2023-01-24T16:29:55;4.66;65.29
75372;HTU21D;63956;52.006;5.878;2023-01-24T16:32:24;4.67;65.14